Time;durP1;ratioP1;P1;durP2;ratioP2;P2;SDS_P1;SDS_P2;PMS_P1;PMS_P2;Temp;Humidity;BMP_temperature;BMP_pressure;BME280_temperature;BME280_humidity;BME280_pressure;Samples;Min_cycle;Max_cycle;Signal;HPM_P1;HPM_P2
2023/12/04 00:01:17;;;;;;;1999.90;999.90;;;;;;;1.96;94.67;96734.13;5092706;28;20044;-63
2023/12/04 00:03:45;;;;;;;1999.90;999.90;;;;;;;1.92;94.58;96732.44;5092802;28;20075;-60
2023/12/04 00:06:12;;;;;;;1999.90;999.90;;;;;;;1.74;93.72;96733.28;5092591;28;20402;-61
2023/12/04 00:08:40;;;;;;;1999.90;999.90;;;;;;;1.76;95.27;96741.91;5092670;28;20052;-60
2023/12/04 00:11:07;;;;;;;1999.90;999.90;;;;;;;1.73;95.30;96757.38;5092551;28;20448;-62
2023/12/04 00:13:36;;;;;;;1999.90;999.90;;;;;;;1.68;94.95;96754.78;5095163;28;20048;-61
2023/12/04 00:16:03;;;;;;;1999.90;999.90;;;;;;;1.63;95.43;96753.94;5096600;28;20070;-62
2023/12/04 00:18:30;;;;;;;1999.90;999.90;;;;;;;1.61;94.48;96751.34;5096552;28;20097;-62
2023/12/04 00:20:57;;;;;;;1999.90;999.90;;;;;;;1.57;95.18;96733.28;5096429;28;20052;-61
2023/12/04 00:23:24;;;;;;;1999.90;999.90;;;;;;;1.58;94.69;96741.03;5096507;28;20490;-62
2023/12/04 00:25:51;;;;;;;1999.90;999.90;;;;;;;1.55;95.16;96737.56;5096472;28;20072;-63
2023/12/04 00:28:18;;;;;;;1999.90;999.90;;;;;;;1.46;94.89;96733.25;5096136;28;20048;-63
2023/12/04 00:30:48;;;;;;;1999.90;999.90;;;;;;;1.44;95.04;96740.16;5096239;28;20135;-60
2023/12/04 00:33:15;;;;;;;1999.90;999.90;;;;;;;1.41;95.44;96741.00;5096267;28;20044;-62
2023/12/04 00:35:42;;;;;;;1999.90;999.90;;;;;;;1.43;95.11;96748.72;5096209;28;20131;-61
2023/12/04 00:38:09;;;;;;;1999.90;999.90;;;;;;;1.39;94.75;96758.19;5096030;28;20055;-62
2023/12/04 00:40:36;;;;;;;1999.90;999.90;;;;;;;1.36;95.64;96758.19;5096186;28;20119;-61
2023/12/04 00:43:03;;;;;;;1999.90;999.90;;;;;;;1.36;94.54;96764.19;5096051;28;20070;-61
2023/12/04 00:45:30;;;;;;;1999.90;999.90;;;;;;;1.40;94.93;96765.06;5096027;28;20051;-63
2023/12/04 00:47:59;;;;;;;1999.90;999.90;;;;;;;1.41;94.93;96771.09;5096091;28;20043;-61
2023/12/04 00:50:26;;;;;;;1999.90;999.90;;;;;;;1.42;94.47;96780.53;5096036;28;20123;-61
2023/12/04 00:52:53;;;;;;;1999.90;999.90;;;;;;;1.32;92.47;96785.66;5095668;28;20490;-61
2023/12/04 00:55:23;;;;;;;1999.90;999.90;;;;;;;1.31;93.34;96794.25;5095731;28;20558;-60
2023/12/04 00:57:50;;;;;;;1999.90;999.90;;;;;;;1.32;93.23;96798.56;5095862;28;20134;-61
2023/12/04 01:00:18;;;;;;;1999.90;999.90;;;;;;;1.32;93.15;96805.44;5095735;28;20123;-60
2023/12/04 01:02:45;;;;;;;1999.90;999.90;;;;;;;1.36;93.60;96802.84;5095704;28;20169;-62
2023/12/04 01:05:13;;;;;;;1999.90;999.90;;;;;;;1.42;93.30;96807.19;5095623;28;20076;-61
2023/12/04 01:07:40;;;;;;;1999.90;999.90;;;;;;;1.48;94.01;96814.91;5095659;28;20044;-61
2023/12/04 01:10:08;;;;;;;1999.90;999.90;;;;;;;1.50;93.42;96814.91;5095509;28;20455;-63
2023/12/04 01:12:35;;;;;;;1999.90;999.90;;;;;;;1.49;92.66;96826.97;5095483;28;20052;-61
2023/12/04 01:15:03;;;;;;;1999.90;999.90;;;;;;;1.55;93.32;96827.84;5095297;28;20151;-61
2023/12/04 01:17:30;;;;;;;1999.90;999.90;;;;;;;1.61;93.86;96833.00;5095528;28;20048;-60
2023/12/04 01:19:58;;;;;;;1999.90;999.90;;;;;;;1.60;93.49;96839.88;5095397;28;20044;-61
2023/12/04 01:22:27;;;;;;;1999.90;999.90;;;;;;;1.60;92.88;96831.28;5095338;28;20502;-63
2023/12/04 01:24:54;;;;;;;1999.90;999.90;;;;;;;1.49;93.26;96821.81;5094672;28;20084;-61
2023/12/04 01:27:21;;;;;;;1999.90;999.90;;;;;;;1.47;93.05;96822.66;5094984;28;20105;-61
2023/12/04 01:29:48;;;;;;;1999.90;999.90;;;;;;;1.35;93.02;96819.19;5095146;28;20052;-63
2023/12/04 01:32:15;;;;;;;1999.90;999.90;;;;;;;1.35;93.02;96826.94;5095170;28;20040;-62
2023/12/04 01:34:42;;;;;;;1999.90;999.90;;;;;;;1.32;93.14;96829.50;5095030;28;20048;-62
2023/12/04 01:37:08;;;;;;;1999.90;999.90;;;;;;;1.26;92.86;96838.06;5095068;28;20048;-62
2023/12/04 01:39:37;;;;;;;1999.90;999.90;;;;;;;1.21;93.57;96839.75;5094904;28;20044;-61
2023/12/04 01:42:04;;;;;;;1999.90;999.90;;;;;;;1.20;93.85;96842.34;5095052;28;20580;-62
2023/12/04 01:44:31;;;;;;;1999.90;999.90;;;;;;;1.11;93.74;96832.84;5095083;28;20126;-62
2023/12/04 01:46:58;;;;;;;1999.90;999.90;;;;;;;1.06;94.15;96838.00;5094728;28;20048;-61
2023/12/04 01:49:25;;;;;;;1999.90;999.90;;;;;;;1.04;94.45;96834.53;5094737;28;20044;-60
2023/12/04 01:51:52;;;;;;;1999.90;999.90;;;;;;;0.97;94.48;96833.63;5094665;28;20105;-63
2023/12/04 01:54:20;;;;;;;1999.90;999.90;;;;;;;0.90;94.98;96837.03;5094523;28;20142;-62
2023/12/04 01:56:49;;;;;;;1999.90;999.90;;;;;;;0.87;95.33;96840.47;5094611;28;20127;-62
2023/12/04 01:59:17;;;;;;;1999.90;999.90;;;;;;;0.81;95.64;96847.31;5094520;28;20486;-61
2023/12/04 02:01:44;;;;;;;1999.90;999.90;;;;;;;0.77;96.48;96853.28;5094506;28;20048;-62
2023/12/04 02:04:11;;;;;;;1999.90;999.90;;;;;;;0.72;96.20;96853.28;5094502;28;20135;-62
2023/12/04 02:06:38;;;;;;;1999.90;999.90;;;;;;;0.70;96.37;96863.56;5094415;28;20044;-63
2023/12/04 02:09:06;;;;;;;1999.90;999.90;;;;;;;0.74;96.75;96867.88;5094459;28;20070;-60
2023/12/04 02:11:33;;;;;;;1999.90;999.90;;;;;;;0.70;96.83;96863.56;5094493;28;20375;-63
2023/12/04 02:14:02;;;;;;;1999.90;999.90;;;;;;;0.66;96.82;96863.53;5094132;28;20087;-60
2023/12/04 02:16:32;;;;;;;1999.90;999.90;;;;;;;0.60;97.34;96856.63;5094223;28;20052;-62
2023/12/04 02:18:59;;;;;;;1999.90;999.90;;;;;;;0.48;97.57;96853.09;5094368;28;20125;-60
2023/12/04 02:21:26;;;;;;;1999.90;999.90;;;;;;;0.47;98.17;96851.38;5094247;28;20123;-62
2023/12/04 02:23:54;;;;;;;1999.90;999.90;;;;;;;0.50;98.48;96858.25;5094072;28;20054;-60
2023/12/04 02:26:29;;;;;;;1999.90;999.90;;;;;;;0.47;98.10;96860.81;5094125;28;20083;-60
2023/12/04 02:29:01;;;;;;;1999.90;999.90;;;;;;;0.50;97.99;96863.41;5093849;28;20048;-61
2023/12/04 02:31:30;;;;;;;1999.90;999.90;;;;;;;0.49;97.86;96862.53;5093944;28;20089;-63
2023/12/04 02:34:00;;;;;;;1999.90;999.90;;;;;;;0.46;98.10;96857.41;5093918;28;20550;-61
2023/12/04 02:36:27;;;;;;;;;;;;;;;0.43;98.21;96857.38;5093418;28;20506;-62
2023/12/04 02:38:56;;;;;;;1999.90;999.90;;;;;;;0.43;98.25;96857.38;5094038;28;19926;-60
2023/12/04 02:41:23;;;;;;;1999.90;999.90;;;;;;;0.47;98.56;96860.81;5093820;28;20123;-62
2023/12/04 02:43:50;;;;;;;1999.90;999.90;;;;;;;0.46;98.64;96872.84;5093945;28;20051;-63
2023/12/04 02:46:17;;;;;;;1999.90;999.90;;;;;;;0.49;98.69;96888.28;5093706;28;20048;-60
2023/12/04 02:48:45;;;;;;;1999.90;999.90;;;;;;;0.59;98.75;96881.50;5093720;28;20537;-60
2023/12/04 02:51:12;;;;;;;1999.90;999.90;;;;;;;0.65;98.27;96878.13;5093711;28;20127;-62
2023/12/04 02:53:39;;;;;;;1999.90;999.90;;;;;;;0.70;97.90;96880.72;5093652;28;20482;-61
2023/12/04 02:56:09;;;;;;;1999.90;999.90;;;;;;;0.65;96.74;96884.97;5093575;28;20048;-62
2023/12/04 02:58:36;;;;;;;1999.90;999.90;;;;;;;0.59;96.91;96873.78;5093601;28;20082;-63
2023/12/04 03:01:03;;;;;;;1999.90;999.90;;;;;;;0.56;96.39;96873.75;5093336;28;20090;-61
2023/12/04 03:03:30;;;;;;;1999.90;999.90;;;;;;;0.49;96.33;96865.13;5093432;28;20046;-62
2023/12/04 03:05:57;;;;;;;1999.90;999.90;;;;;;;0.44;96.35;96868.50;5093452;28;20047;-60
2023/12/04 03:08:24;;;;;;;1999.90;999.90;;;;;;;0.45;96.11;96880.56;5093271;28;20139;-63
2023/12/04 03:10:51;;;;;;;1999.90;999.90;;;;;;;0.39;96.59;96883.06;5093366;28;20047;-61
2023/12/04 03:13:19;;;;;;;1999.90;999.90;;;;;;;0.41;96.91;96879.66;5093485;28;20048;-61
2023/12/04 03:15:46;;;;;;;1999.90;999.90;;;;;;;0.42;95.94;96889.09;5093219;28;20058;-62
2023/12/04 03:18:13;;;;;;;1999.90;999.90;;;;;;;0.47;95.33;96887.44;5093319;28;20101;-60
2023/12/04 03:20:40;;;;;;;1999.90;999.90;;;;;;;0.50;96.03;96887.47;5093299;28;20051;-63
2023/12/04 03:23:07;;;;;;;1999.90;999.90;;;;;;;0.54;95.55;96890.06;5093190;28;20051;-63
2023/12/04 03:25:34;;;;;;;1999.90;999.90;;;;;;;0.57;95.28;96893.50;5093141;28;20048;-61
2023/12/04 03:28:01;;;;;;;1999.90;999.90;;;;;;;0.61;95.36;96890.09;5092969;28;20052;-62
2023/12/04 03:30:30;;;;;;;1999.90;999.90;;;;;;;0.67;95.24;96894.44;5093114;28;20063;-63
2023/12/04 03:32:57;;;;;;;1999.90;999.90;;;;;;;0.71;94.71;96895.31;5093063;28;20044;-60
2023/12/04 03:35:24;;;;;;;1999.90;999.90;;;;;;;0.76;94.31;96903.94;5093085;28;20051;-61
2023/12/04 03:37:51;;;;;;;1999.90;999.90;;;;;;;0.76;93.50;96906.53;5093155;28;20440;-61
2023/12/04 03:40:18;;;;;;;1999.90;999.90;;;;;;;0.78;93.32;96904.81;5092930;28;20118;-62
2023/12/04 03:42:45;;;;;;;1999.90;999.90;;;;;;;0.78;92.83;96902.22;5093021;28;20059;-61
2023/12/04 03:45:12;;;;;;;1999.90;999.90;;;;;;;0.91;92.99;96917.78;5093004;28;20052;-60
2023/12/04 03:47:41;;;;;;;1999.90;999.90;;;;;;;0.81;91.36;96919.44;5094086;28;20052;-63
2023/12/04 03:50:08;;;;;;;1999.90;999.90;;;;;;;0.81;91.15;96906.56;5097064;28;20052;-60
2023/12/04 03:52:35;;;;;;;1999.90;999.90;;;;;;;0.92;91.96;96898.88;5097022;28;20044;-62
2023/12/04 03:55:03;;;;;;;1999.90;999.90;;;;;;;0.88;91.41;96904.00;5096888;28;20044;-60
2023/12/04 03:57:30;;;;;;;1999.90;999.90;;;;;;;0.86;90.69;96899.72;5096920;28;20094;-61
2023/12/04 03:59:57;;;;;;;1999.90;999.90;;;;;;;0.82;90.73;96903.13;5096952;28;20105;-62
2023/12/04 04:02:24;;;;;;;1999.90;999.90;;;;;;;0.86;90.97;96915.16;5096800;28;20040;-62
2023/12/04 04:04:52;;;;;;;1999.90;999.90;;;;;;;0.83;90.11;96925.44;5096924;28;20143;-62
2023/12/04 04:07:19;;;;;;;1999.90;999.90;;;;;;;0.82;89.47;96923.72;5096885;28;20127;-62
2023/12/04 04:09:46;;;;;;;1999.90;999.90;;;;;;;0.93;89.80;96919.50;5096795;28;20178;-61
2023/12/04 04:12:13;;;;;;;1999.90;999.90;;;;;;;0.99;90.18;96923.81;5096788;28;20112;-63
2023/12/04 04:14:40;;;;;;;1999.90;999.90;;;;;;;0.97;88.40;96917.81;5096524;28;20450;-62
2023/12/04 04:17:07;;;;;;;1999.90;999.90;;;;;;;0.93;88.19;96923.81;5096601;28;20512;-62
2023/12/04 04:19:34;;;;;;;1999.90;999.90;;;;;;;0.89;87.51;96928.06;5096558;28;20044;-61
2023/12/04 04:22:03;;;;;;;1999.90;999.90;;;;;;;0.90;88.26;96919.47;5096510;28;20048;-62
2023/12/04 04:24:30;;;;;;;1999.90;999.90;;;;;;;0.92;88.50;96933.25;5096462;28;20391;-62
2023/12/04 04:26:57;;;;;;;1999.90;999.90;;;;;;;0.93;88.39;96936.69;5096246;28;20044;-62
2023/12/04 04:29:24;;;;;;;1999.90;999.90;;;;;;;0.95;89.89;96938.41;5096388;28;20048;-61
2023/12/04 04:31:52;;;;;;;1999.90;999.90;;;;;;;1.06;89.49;96953.09;5096498;28;20048;-62
2023/12/04 04:34:21;;;;;;;1999.90;999.90;;;;;;;1.09;89.33;96951.38;5096349;28;20054;-61
2023/12/04 04:36:48;;;;;;;1999.90;999.90;;;;;;;1.15;89.51;96955.72;5096115;28;20044;-63
2023/12/04 04:39:16;;;;;;;1999.90;999.90;;;;;;;1.20;89.56;96953.19;5096069;28;20139;-61
2023/12/04 04:41:44;;;;;;;1999.90;999.90;;;;;;;1.21;88.76;96952.31;5096141;28;20097;-61
2023/12/04 04:44:11;;;;;;;1999.90;999.90;;;;;;;1.06;88.78;96950.50;5096079;28;20131;-60
2023/12/04 04:46:38;;;;;;;1999.90;999.90;;;;;;;0.97;87.66;96949.59;5095861;28;20509;-63
2023/12/04 04:49:06;;;;;;;1999.90;999.90;;;;;;;0.90;87.11;96950.41;5095984;28;20040;-63
2023/12/04 04:51:34;;;;;;;1999.90;999.90;;;;;;;0.82;87.93;96950.38;5095856;28;20086;-62
2023/12/04 04:54:01;;;;;;;1999.90;999.90;;;;;;;0.75;88.05;96952.00;5095917;28;20047;-62
2023/12/04 04:56:30;;;;;;;1999.90;999.90;;;;;;;0.72;88.39;96951.16;5095924;28;20079;-61
2023/12/04 04:58:57;;;;;;;1999.90;999.90;;;;;;;0.67;88.21;96953.69;5094689;28;20040;-62
2023/12/04 05:01:24;;;;;;;1999.90;999.90;;;;;;;0.69;87.94;96949.38;5095662;28;20079;-62
2023/12/04 05:03:52;;;;;;;1999.90;999.90;;;;;;;0.67;87.48;96958.84;5095697;28;20044;-63
2023/12/04 05:06:19;;;;;;;1999.90;999.90;;;;;;;0.60;88.23;96963.06;5095653;28;20458;-62
2023/12/04 05:08:46;;;;;;;1999.90;999.90;;;;;;;0.59;88.57;96961.34;5095550;28;20044;-62
2023/12/04 05:11:16;;;;;;;1999.90;999.90;;;;;;;0.63;88.64;96968.22;5095527;28;20387;-60
2023/12/04 05:13:45;;;;;;;1999.90;999.90;;;;;;;0.63;87.95;96964.78;5095618;28;20471;-62
2023/12/04 05:16:12;;;;;;;1999.90;999.90;;;;;;;0.56;88.78;96957.88;5095441;28;20493;-60
2023/12/04 05:18:40;;;;;;;1999.90;999.90;;;;;;;0.53;89.34;96960.41;5095395;28;20048;-62
2023/12/04 05:21:10;;;;;;;1999.90;999.90;;;;;;;0.53;89.40;96955.25;5095459;28;20040;-61
2023/12/04 05:23:37;;;;;;;1999.90;999.90;;;;;;;0.54;88.97;96957.84;5095318;28;20127;-62
2023/12/04 05:26:05;;;;;;;1999.90;999.90;;;;;;;0.60;88.79;96962.22;5095266;28;20098;-62
2023/12/04 05:28:32;;;;;;;1999.90;999.90;;;;;;;0.65;88.14;96968.25;5094945;28;20052;-63
2023/12/04 05:31:02;;;;;;;1999.90;999.90;;;;;;;0.67;88.08;96965.69;5095237;28;20076;-62
2023/12/04 05:33:29;;;;;;;1999.90;999.90;;;;;;;0.63;88.14;96965.66;5095171;28;20131;-61
2023/12/04 05:35:56;;;;;;;1999.90;999.90;;;;;;;0.63;87.79;96959.63;5094918;28;20143;-62
2023/12/04 05:38:23;;;;;;;1999.90;999.90;;;;;;;0.67;88.03;96976.88;5095039;28;20055;-62
2023/12/04 05:40:50;;;;;;;1999.90;999.90;;;;;;;0.71;87.36;96970.88;5095048;28;21253;-61
2023/12/04 05:43:18;;;;;;;1999.90;999.90;;;;;;;0.74;87.47;96976.06;5094822;28;20139;-61
2023/12/04 05:45:45;;;;;;;1999.90;999.90;;;;;;;0.71;87.14;96975.16;5094854;28;20083;-62
2023/12/04 05:48:14;;;;;;;1999.90;999.90;;;;;;;0.73;87.65;96981.19;5094811;28;20456;-62
2023/12/04 05:50:41;;;;;;;1999.90;999.90;;;;;;;0.71;86.82;96980.31;5094713;28;20044;-61
2023/12/04 05:53:08;;;;;;;1999.90;999.90;;;;;;;0.69;85.09;96982.88;5094666;28;20143;-62
2023/12/04 05:55:36;;;;;;;1999.90;999.90;;;;;;;0.67;85.28;96996.59;5094721;28;20406;-62
2023/12/04 05:58:03;;;;;;;1999.90;999.90;;;;;;;0.61;85.50;96999.97;5094705;28;20406;-63
2023/12/04 06:00:30;;;;;;;1999.90;999.90;;;;;;;0.62;85.82;97006.84;5094582;28;20050;-63
2023/12/04 06:02:57;;;;;;;1999.90;999.90;;;;;;;0.62;85.32;97012.88;5094588;28;20052;-60
2023/12/04 06:05:27;;;;;;;1999.90;999.90;;;;;;;0.66;85.50;97018.06;5094445;28;20044;-60
2023/12/04 06:07:54;;;;;;;1999.90;999.90;;;;;;;0.68;84.03;97019.78;5094602;28;20048;-63
2023/12/04 06:10:21;;;;;;;1999.90;999.90;;;;;;;0.72;84.59;97018.13;5094499;28;20048;-60
2023/12/04 06:12:48;;;;;;;1999.90;999.90;;;;;;;0.80;85.66;97026.75;5094437;28;20108;-61
2023/12/04 06:15:16;;;;;;;1999.90;999.90;;;;;;;0.78;84.51;97027.59;5094002;28;20494;-62
2023/12/04 06:17:43;;;;;;;1999.90;999.90;;;;;;;0.76;84.65;97022.44;5094320;28;20055;-62
2023/12/04 06:20:11;;;;;;;1999.90;999.90;;;;;;;0.67;81.71;97030.94;5094033;28;20559;-61
2023/12/04 06:22:41;;;;;;;1999.90;999.90;;;;;;;0.65;83.35;97017.19;5094207;28;20044;-60
2023/12/04 06:25:10;;;;;;;1999.90;999.90;;;;;;;0.65;84.33;97017.19;5094211;28;20567;-62
2023/12/04 06:27:38;;;;;;;1999.90;999.90;;;;;;;0.67;84.23;97020.66;5093884;28;20055;-62
2023/12/04 06:30:08;;;;;;;1999.90;999.90;;;;;;;0.66;85.03;97026.63;5094203;28;20040;-63
2023/12/04 06:32:36;;;;;;;1999.90;999.90;;;;;;;0.70;85.00;97030.97;5094182;28;20082;-62
2023/12/04 06:35:05;;;;;;;1999.90;999.90;;;;;;;0.69;85.75;97033.53;5093977;28;20504;-61
2023/12/04 06:37:33;;;;;;;1999.90;999.90;;;;;;;0.68;85.12;97035.25;5093840;28;20093;-60
2023/12/04 06:40:02;;;;;;;1999.90;999.90;;;;;;;0.71;84.83;97039.56;5093983;28;20150;-62
2023/12/04 06:42:30;;;;;;;1999.90;999.90;;;;;;;0.76;84.28;97048.19;5093860;28;20043;-60
2023/12/04 06:44:57;;;;;;;1999.90;999.90;;;;;;;0.75;83.13;97041.28;5093895;28;20731;-63
2023/12/04 06:47:25;;;;;;;1999.90;999.90;;;;;;;0.75;82.74;97049.03;5093712;28;20076;-62
2023/12/04 06:49:52;;;;;;;1999.90;999.90;;;;;;;0.77;84.39;97062.78;5093547;28;20048;-62
2023/12/04 06:52:19;;;;;;;1999.90;999.90;;;;;;;0.82;86.38;97068.00;5093602;28;20052;-61
2023/12/04 06:54:46;;;;;;;1999.90;999.90;;;;;;;0.79;85.91;97068.84;5093605;28;20076;-61
2023/12/04 06:57:14;;;;;;;1999.90;999.90;;;;;;;0.73;84.12;97064.47;5093351;28;20564;-62
2023/12/04 06:59:42;;;;;;;1999.90;999.90;;;;;;;0.72;84.42;97075.63;5093420;28;20051;-63
2023/12/04 07:02:09;;;;;;;1999.90;999.90;;;;;;;0.76;84.29;97081.69;5093446;28;20070;-61
2023/12/04 07:04:37;;;;;;;1999.90;999.90;;;;;;;0.72;84.22;97085.09;5093436;28;20055;-62
2023/12/04 07:07:05;;;;;;;1999.90;999.90;;;;;;;0.69;84.80;97077.31;5093375;28;20074;-61
2023/12/04 07:09:33;;;;;;;1999.90;999.90;;;;;;;0.72;84.15;97085.94;5093437;28;20134;-63
2023/12/04 07:12:01;;;;;;;1999.90;999.90;;;;;;;0.74;84.22;97089.41;5093367;28;20098;-61
2023/12/04 07:14:29;;;;;;;1999.90;999.90;;;;;;;0.79;84.65;97086.88;5093255;28;20127;-61
2023/12/04 07:16:56;;;;;;;1999.90;999.90;;;;;;;0.82;85.01;97091.19;5093165;28;20429;-61
2023/12/04 07:19:23;;;;;;;1999.90;999.90;;;;;;;0.83;85.21;97077.44;5093203;28;20048;-62
2023/12/04 07:21:51;;;;;;;1999.90;999.90;;;;;;;0.88;86.36;97086.09;5092785;28;20044;-62
2023/12/04 07:24:18;;;;;;;1999.90;999.90;;;;;;;0.91;86.33;97092.97;5092995;28;20109;-60
2023/12/04 07:26:45;;;;;;;1999.90;999.90;;;;;;;0.83;84.94;97096.34;5092928;28;20075;-60
2023/12/04 07:29:12;;;;;;;1999.90;999.90;;;;;;;0.92;85.46;97094.69;5093028;28;20502;-62
2023/12/04 07:31:42;;;;;;;1999.90;999.90;;;;;;;0.95;84.67;97093.03;5093153;28;20482;-61
2023/12/04 07:34:09;;;;;;;;;;;;;;;1.00;85.88;97091.34;5093753;28;20386;-62
2023/12/04 07:36:36;;;;;;;1999.90;999.90;;;;;;;0.89;85.71;97092.97;5092868;28;19920;-61
2023/12/04 07:39:06;;;;;;;1999.90;999.90;;;;;;;0.88;85.80;97096.41;5093126;28;20056;-62
2023/12/04 07:41:33;;;;;;;1999.90;999.90;;;;;;;0.90;86.25;97101.56;5093084;28;20044;-61
2023/12/04 07:44:00;;;;;;;1999.90;999.90;;;;;;;0.95;86.59;97092.16;5093041;28;20051;-62
2023/12/04 07:46:27;;;;;;;1999.90;999.90;;;;;;;0.92;86.29;97097.25;5093148;28;20122;-61
2023/12/04 07:48:56;;;;;;;1999.90;999.90;;;;;;;0.95;85.12;97097.28;5092901;28;20062;-62
2023/12/04 07:51:23;;;;;;;1999.90;999.90;;;;;;;0.96;84.81;97099.88;5092887;28;20456;-62
2023/12/04 07:53:50;;;;;;;1999.90;999.90;;;;;;;1.01;86.36;97102.50;5093096;28;20048;-60
2023/12/04 07:56:17;;;;;;;1999.90;999.90;;;;;;;0.98;85.11;97111.09;5092893;28;20044;-62
2023/12/04 07:58:44;;;;;;;1999.90;999.90;;;;;;;1.00;85.18;97111.94;5092958;28;20184;-62
2023/12/04 08:01:11;;;;;;;1999.90;999.90;;;;;;;1.03;84.22;97100.81;5093071;28;20044;-61
2023/12/04 08:03:38;;;;;;;1999.90;999.90;;;;;;;1.12;84.24;97100.03;5092811;28;20127;-61
2023/12/04 08:06:07;;;;;;;1999.90;999.90;;;;;;;1.17;84.72;97107.81;5092822;28;20048;-60
2023/12/04 08:08:35;;;;;;;1999.90;999.90;;;;;;;1.28;84.06;97105.31;5092812;28;20089;-60
2023/12/04 08:11:02;;;;;;;1999.90;999.90;;;;;;;1.32;84.61;97112.25;5092612;28;20052;-61
2023/12/04 08:13:29;;;;;;;1999.90;999.90;;;;;;;1.33;82.36;97109.69;5092637;28;20474;-62
2023/12/04 08:15:56;;;;;;;1999.90;999.90;;;;;;;1.32;83.53;97112.25;5092784;28;20098;-61
2023/12/04 08:18:24;;;;;;;1999.90;999.90;;;;;;;1.38;83.89;97113.13;5092725;28;20044;-62
2023/12/04 08:20:51;;;;;;;1999.90;999.90;;;;;;;1.44;83.67;97114.88;5092704;28;20048;-61
2023/12/04 08:23:20;;;;;;;1999.90;999.90;;;;;;;1.47;80.82;97122.66;5092522;28;20044;-61
2023/12/04 08:25:47;;;;;;;1999.90;999.90;;;;;;;1.57;82.22;97123.59;5092600;28;20047;-63
2023/12/04 08:28:14;;;;;;;1999.90;999.90;;;;;;;1.66;81.12;97119.34;5092386;28;20044;-62
2023/12/04 08:30:41;;;;;;;1999.90;999.90;;;;;;;1.69;82.21;97119.38;5074730;28;20048;-60
2023/12/04 08:33:08;;;;;;;1999.90;999.90;;;;;;;1.70;81.41;97123.66;5092825;28;20047;-60
2023/12/04 08:35:35;;;;;;;1999.90;999.90;;;;;;;1.74;81.76;97121.13;5096535;28;20057;-61
2023/12/04 08:38:03;;;;;;;1999.90;999.90;;;;;;;1.84;81.47;97124.59;5096192;28;20140;-63
2023/12/04 08:40:31;;;;;;;1999.90;999.90;;;;;;;1.93;80.04;97131.56;5096143;28;20048;-63
2023/12/04 08:42:58;;;;;;;1999.90;999.90;;;;;;;1.98;79.35;97124.69;5096134;28;20044;-61
2023/12/04 08:45:25;;;;;;;1999.90;999.90;;;;;;;2.01;80.86;97126.44;5095984;28;20073;-62
2023/12/04 08:47:52;;;;;;;1999.90;999.90;;;;;;;2.04;80.31;97131.59;5095980;28;20075;-63
2023/12/04 08:50:20;;;;;;;1999.90;999.90;;;;;;;2.09;80.18;97131.63;5096036;28;20055;-63
2023/12/04 08:52:47;;;;;;;1999.90;999.90;;;;;;;2.13;79.58;97123.91;5095880;28;20048;-61
2023/12/04 08:55:14;;;;;;;1999.90;999.90;;;;;;;2.18;79.63;97129.13;5095939;28;20044;-62
2023/12/04 08:57:42;;;;;;;1999.90;999.90;;;;;;;2.20;80.95;97132.53;5095654;28;20056;-60
2023/12/04 09:00:10;;;;;;;1999.90;999.90;;;;;;;2.27;80.10;97131.75;5095816;28;20105;-60
2023/12/04 09:02:37;;;;;;;1999.90;999.90;;;;;;;2.40;81.53;97130.06;5095743;28;20044;-62
2023/12/04 09:05:05;;;;;;;1999.90;999.90;;;;;;;2.44;79.91;97133.50;5095624;28;20119;-64
2023/12/04 09:07:32;;;;;;;1999.90;999.90;;;;;;;2.39;80.83;97143.84;5095625;28;20051;-61
2023/12/04 09:10:01;;;;;;;1999.90;999.90;;;;;;;2.42;80.54;97131.78;5095567;28;20083;-62
2023/12/04 09:12:28;;;;;;;1999.90;999.90;;;;;;;2.49;81.40;97128.38;5095492;28;20044;-61
2023/12/04 09:14:56;;;;;;;1999.90;999.90;;;;;;;2.52;80.42;97130.97;5095546;28;20048;-63
2023/12/04 09:17:23;;;;;;;1999.90;999.90;;;;;;;2.58;80.67;97128.41;5095400;28;20044;-62
2023/12/04 09:19:51;;;;;;;1999.90;999.90;;;;;;;2.68;81.93;97131.88;5095416;28;20080;-61
2023/12/04 09:22:18;;;;;;;1999.90;999.90;;;;;;;2.76;79.87;97129.31;5095313;28;20453;-61
2023/12/04 09:24:45;;;;;;;1999.90;999.90;;;;;;;2.80;80.43;97128.44;5095243;28;20052;-64
2023/12/04 09:27:12;;;;;;;1999.90;999.90;;;;;;;2.83;80.38;97135.38;5095084;28;20494;-64
2023/12/04 09:29:39;;;;;;;1999.90;999.90;;;;;;;2.88;78.84;97134.53;5095212;28;20075;-62
2023/12/04 09:32:08;;;;;;;1999.90;999.90;;;;;;;2.84;78.63;97131.91;5095260;28;20459;-61
2023/12/04 09:34:35;;;;;;;1999.90;999.90;;;;;;;2.81;78.01;97132.78;5095107;28;20040;-62
2023/12/04 09:37:02;;;;;;;1999.90;999.90;;;;;;;2.74;78.31;97134.47;5095071;28;20048;-61
2023/12/04 09:39:31;;;;;;;1999.90;999.90;;;;;;;2.68;79.67;97131.88;5094969;28;20052;-64
2023/12/04 09:41:59;;;;;;;1999.90;999.90;;;;;;;2.64;78.23;97133.59;5095082;28;20044;-61
2023/12/04 09:44:30;;;;;;;1999.90;999.90;;;;;;;2.49;76.66;97126.66;5094995;28;20474;-62
2023/12/04 09:46:57;;;;;;;1999.90;999.90;;;;;;;2.44;78.95;97128.34;5094333;28;20135;-64
2023/12/04 09:49:29;;;;;;;1999.90;999.90;;;;;;;2.39;80.36;97125.78;5094853;28;20493;-61
2023/12/04 09:51:58;;;;;;;1999.90;999.90;;;;;;;2.39;81.34;97123.19;5094808;28;20176;-63
2023/12/04 09:54:26;;;;;;;1999.90;999.90;;;;;;;2.35;80.06;97124.00;5094852;28;20051;-61
2023/12/04 09:56:53;;;;;;;1999.90;999.90;;;;;;;2.39;81.09;97127.47;5094670;28;20060;-62
2023/12/04 09:59:24;;;;;;;1999.90;999.90;;;;;;;2.43;78.89;97133.50;5094669;28;20044;-62
2023/12/04 10:01:52;;;;;;;1999.90;999.90;;;;;;;2.38;79.91;97131.78;5094542;28;20050;-63
2023/12/04 10:04:21;;;;;;;1999.90;999.90;;;;;;;2.33;79.21;97127.44;5094501;28;20048;-62
2023/12/04 10:06:51;;;;;;;1999.90;999.90;;;;;;;2.33;80.00;97135.19;5094557;28;20481;-62
2023/12/04 10:09:18;;;;;;;;;;;;;;;2.31;80.69;97127.44;5094891;28;20052;-60
2023/12/04 10:11:46;;;;;;;1999.90;999.90;;;;;;;2.26;79.12;97124.00;5094427;28;19963;-61
2023/12/04 10:14:17;;;;;;;1999.90;999.90;;;;;;;2.34;80.79;97127.47;5094295;28;20048;-60
2023/12/04 10:16:44;;;;;;;1999.90;999.90;;;;;;;2.36;81.45;97130.91;5094121;28;20048;-63
2023/12/04 10:19:19;;;;;;;1999.90;999.90;;;;;;;2.45;82.48;97121.47;5094120;28;20497;-63
2023/12/04 10:21:47;;;;;;;1999.90;999.90;;;;;;;2.46;79.44;97123.19;5094234;28;20102;-61
2023/12/04 10:24:28;;;;;;;1999.90;999.90;;;;;;;2.43;78.61;97123.16;5094212;28;20044;-62
2023/12/04 10:26:56;;;;;;;1999.90;999.90;;;;;;;2.36;78.56;97119.72;5093985;28;20503;-63
2023/12/04 10:29:23;;;;;;;1999.90;999.90;;;;;;;2.35;78.68;97116.25;5094092;28;20048;-61
2023/12/04 10:31:52;;;;;;;1999.90;999.90;;;;;;;2.43;79.32;97107.69;5094102;28;20498;-63
2023/12/04 10:34:21;;;;;;;1999.90;999.90;;;;;;;2.54;78.61;97098.25;5094026;28;20136;-62
2023/12/04 10:36:48;;;;;;;1999.90;999.90;;;;;;;2.60;77.91;97105.16;5093832;28;20048;-61
2023/12/04 10:39:17;;;;;;;1999.90;999.90;;;;;;;2.68;78.36;97110.34;5093895;28;20052;-61
2023/12/04 10:41:45;;;;;;;1999.90;999.90;;;;;;;2.64;76.40;97112.94;5093844;28;20043;-61
2023/12/04 10:44:18;;;;;;;1999.90;999.90;;;;;;;2.72;76.48;97118.13;5093807;28;20052;-61
2023/12/04 10:46:48;;;;;;;1999.90;999.90;;;;;;;2.71;75.31;97118.13;5093785;28;20052;-62
2023/12/04 10:49:15;;;;;;;1999.90;999.90;;;;;;;2.76;76.44;97113.81;5093685;28;20417;-64
2023/12/04 10:51:44;;;;;;;1999.90;999.90;;;;;;;2.78;77.43;97112.97;5093682;28;20048;-64
2023/12/04 10:54:12;;;;;;;1999.90;999.90;;;;;;;2.71;75.42;97111.22;5093613;28;20383;-63
2023/12/04 10:56:44;;;;;;;1999.90;999.90;;;;;;;2.70;75.76;97103.44;5092963;28;20048;-64
2023/12/04 10:59:16;;;;;;;1999.90;999.90;;;;;;;2.72;76.96;97109.50;5093406;28;20535;-64
2023/12/04 11:01:46;;;;;;;1999.90;999.90;;;;;;;2.72;76.31;97120.69;5093531;28;20127;-61
2023/12/04 11:04:17;;;;;;;1999.90;999.90;;;;;;;2.78;76.45;97110.38;5093528;28;20493;-62